sensor_id;sensor_type;location;lat;lon;timestamp;P1;durP1;ratioP1;P2;durP2;ratioP2
70545;SDS011;58098;51.680;5.134;2023-12-07T00:00:02;24.77;;;14.70;;
70545;SDS011;58098;51.680;5.134;2023-12-07T00:02:27;25.17;;;13.73;;
70545;SDS011;58098;51.680;5.134;2023-12-07T00:04:53;25.93;;;14.17;;
70545;SDS011;58098;51.680;5.134;2023-12-07T00:07:18;27.43;;;14.43;;
70545;SDS011;58098;51.680;5.134;2023-12-07T00:09:43;24.57;;;14.67;;
70545;SDS011;58098;51.680;5.134;2023-12-07T00:12:08;23.70;;;13.60;;
70545;SDS011;58098;51.680;5.134;2023-12-07T00:14:34;21.70;;;12.40;;
70545;SDS011;58098;51.680;5.134;2023-12-07T00:16:59;21.13;;;12.40;;
70545;SDS011;58098;51.680;5.134;2023-12-07T00:19:24;18.20;;;11.73;;
70545;SDS011;58098;51.680;5.134;2023-12-07T00:21:50;22.63;;;12.67;;
70545;SDS011;58098;51.680;5.134;2023-12-07T00:24:15;22.67;;;13.30;;
70545;SDS011;58098;51.680;5.134;2023-12-07T00:26:40;25.67;;;14.47;;
70545;SDS011;58098;51.680;5.134;2023-12-07T00:29:06;25.03;;;13.77;;
70545;SDS011;58098;51.680;5.134;2023-12-07T00:31:31;24.13;;;14.80;;
70545;SDS011;58098;51.680;5.134;2023-12-07T00:33:56;26.13;;;15.53;;
70545;SDS011;58098;51.680;5.134;2023-12-07T00:36:21;23.53;;;14.23;;
70545;SDS011;58098;51.680;5.134;2023-12-07T00:38:47;25.60;;;16.17;;
70545;SDS011;58098;51.680;5.134;2023-12-07T00:41:12;29.92;;;15.02;;
70545;SDS011;58098;51.680;5.134;2023-12-07T00:43:38;22.67;;;12.33;;
70545;SDS011;58098;51.680;5.134;2023-12-07T00:46:03;27.40;;;15.03;;
70545;SDS011;58098;51.680;5.134;2023-12-07T00:48:28;25.03;;;15.37;;
70545;SDS011;58098;51.680;5.134;2023-12-07T00:50:54;19.47;;;12.63;;
70545;SDS011;58098;51.680;5.134;2023-12-07T00:53:19;20.07;;;12.73;;
70545;SDS011;58098;51.680;5.134;2023-12-07T00:55:44;22.17;;;13.67;;
70545;SDS011;58098;51.680;5.134;2023-12-07T00:58:10;23.10;;;14.40;;
70545;SDS011;58098;51.680;5.134;2023-12-07T01:00:35;23.67;;;13.87;;
70545;SDS011;58098;51.680;5.134;2023-12-07T01:03:01;21.27;;;12.65;;
70545;SDS011;58098;51.680;5.134;2023-12-07T01:05:27;25.10;;;14.33;;
70545;SDS011;58098;51.680;5.134;2023-12-07T01:07:52;22.80;;;13.63;;
70545;SDS011;58098;51.680;5.134;2023-12-07T01:10:17;24.63;;;14.10;;
70545;SDS011;58098;51.680;5.134;2023-12-07T01:12:43;23.27;;;14.37;;
70545;SDS011;58098;51.680;5.134;2023-12-07T01:15:08;22.10;;;13.57;;
70545;SDS011;58098;51.680;5.134;2023-12-07T01:17:33;22.27;;;14.03;;
70545;SDS011;58098;51.680;5.134;2023-12-07T01:19:59;21.60;;;13.43;;
70545;SDS011;58098;51.680;5.134;2023-12-07T01:22:24;23.83;;;14.10;;
70545;SDS011;58098;51.680;5.134;2023-12-07T01:24:50;23.23;;;13.37;;
70545;SDS011;58098;51.680;5.134;2023-12-07T01:27:15;22.83;;;13.97;;
70545;SDS011;58098;51.680;5.134;2023-12-07T01:29:41;25.23;;;13.30;;
70545;SDS011;58098;51.680;5.134;2023-12-07T01:32:06;23.23;;;13.93;;
70545;SDS011;58098;51.680;5.134;2023-12-07T01:34:32;19.67;;;12.50;;
70545;SDS011;58098;51.680;5.134;2023-12-07T01:36:57;21.48;;;14.00;;
70545;SDS011;58098;51.680;5.134;2023-12-07T01:39:23;23.17;;;13.93;;
70545;SDS011;58098;51.680;5.134;2023-12-07T01:41:49;21.13;;;13.60;;
70545;SDS011;58098;51.680;5.134;2023-12-07T01:44:15;22.80;;;14.37;;
70545;SDS011;58098;51.680;5.134;2023-12-07T01:46:40;23.90;;;14.40;;
70545;SDS011;58098;51.680;5.134;2023-12-07T01:49:06;20.35;;;13.48;;
70545;SDS011;58098;51.680;5.134;2023-12-07T01:51:31;21.40;;;14.03;;
70545;SDS011;58098;51.680;5.134;2023-12-07T01:53:57;21.67;;;13.48;;
70545;SDS011;58098;51.680;5.134;2023-12-07T01:56:23;26.50;;;13.53;;
70545;SDS011;58098;51.680;5.134;2023-12-07T01:58:50;21.80;;;13.73;;
70545;SDS011;58098;51.680;5.134;2023-12-07T02:01:16;23.60;;;14.20;;
70545;SDS011;58098;51.680;5.134;2023-12-07T02:03:42;23.40;;;14.10;;
70545;SDS011;58098;51.680;5.134;2023-12-07T02:06:08;22.10;;;14.07;;
70545;SDS011;58098;51.680;5.134;2023-12-07T02:08:34;23.98;;;14.88;;
70545;SDS011;58098;51.680;5.134;2023-12-07T02:11:00;26.98;;;14.90;;
70545;SDS011;58098;51.680;5.134;2023-12-07T02:13:25;26.37;;;14.27;;
70545;SDS011;58098;51.680;5.134;2023-12-07T02:15:51;32.97;;;18.05;;
70545;SDS011;58098;51.680;5.134;2023-12-07T02:23:33;28.23;;;15.25;;
70545;SDS011;58098;51.680;5.134;2023-12-07T02:26:02;23.60;;;14.20;;
70545;SDS011;58098;51.680;5.134;2023-12-07T02:28:28;25.73;;;14.98;;
70545;SDS011;58098;51.680;5.134;2023-12-07T02:30:54;26.63;;;14.90;;
70545;SDS011;58098;51.680;5.134;2023-12-07T02:33:19;25.13;;;14.10;;
70545;SDS011;58098;51.680;5.134;2023-12-07T02:35:45;27.27;;;14.20;;
70545;SDS011;58098;51.680;5.134;2023-12-07T02:38:10;25.05;;;14.88;;
70545;SDS011;58098;51.680;5.134;2023-12-07T02:40:36;24.83;;;15.17;;
70545;SDS011;58098;51.680;5.134;2023-12-07T02:43:03;22.10;;;14.02;;
70545;SDS011;58098;51.680;5.134;2023-12-07T02:45:29;21.42;;;13.55;;
70545;SDS011;58098;51.680;5.134;2023-12-07T02:47:55;28.17;;;14.87;;
70545;SDS011;58098;51.680;5.134;2023-12-07T02:50:22;30.58;;;15.52;;
70545;SDS011;58098;51.680;5.134;2023-12-07T02:52:47;43.73;;;20.90;;
70545;SDS011;58098;51.680;5.134;2023-12-07T02:55:13;36.05;;;19.48;;
70545;SDS011;58098;51.680;5.134;2023-12-07T02:57:38;33.90;;;18.23;;
70545;SDS011;58098;51.680;5.134;2023-12-07T03:00:04;32.53;;;17.60;;
70545;SDS011;58098;51.680;5.134;2023-12-07T03:02:33;46.30;;;19.15;;
70545;SDS011;58098;51.680;5.134;2023-12-07T03:05:02;51.93;;;19.53;;
70545;SDS011;58098;51.680;5.134;2023-12-07T03:07:28;82.40;;;22.10;;
70545;SDS011;58098;51.680;5.134;2023-12-07T03:09:53;337.83;;;30.93;;
70545;SDS011;58098;51.680;5.134;2023-12-07T03:12:19;111.40;;;22.63;;
70545;SDS011;58098;51.680;5.134;2023-12-07T03:14:44;87.87;;;20.97;;
70545;SDS011;58098;51.680;5.134;2023-12-07T03:17:09;129.90;;;23.03;;
70545;SDS011;58098;51.680;5.134;2023-12-07T03:19:38;92.00;;;21.95;;
70545;SDS011;58098;51.680;5.134;2023-12-07T03:22:04;90.57;;;22.50;;
70545;SDS011;58098;51.680;5.134;2023-12-07T03:24:31;70.55;;;20.58;;
70545;SDS011;58098;51.680;5.134;2023-12-07T03:26:57;80.20;;;23.57;;
70545;SDS011;58098;51.680;5.134;2023-12-07T03:29:22;102.80;;;21.17;;
70545;SDS011;58098;51.680;5.134;2023-12-07T03:31:47;116.40;;;22.97;;
70545;SDS011;58098;51.680;5.134;2023-12-07T03:34:13;138.40;;;24.83;;
70545;SDS011;58098;51.680;5.134;2023-12-07T03:36:40;132.43;;;22.67;;
70545;SDS011;58098;51.680;5.134;2023-12-07T03:39:06;188.40;;;27.23;;
70545;SDS011;58098;51.680;5.134;2023-12-07T03:41:32;202.80;;;29.35;;
70545;SDS011;58098;51.680;5.134;2023-12-07T03:43:57;101.10;;;22.30;;
70545;SDS011;58098;51.680;5.134;2023-12-07T03:46:22;142.00;;;26.07;;
70545;SDS011;58098;51.680;5.134;2023-12-07T03:48:48;97.37;;;21.57;;
70545;SDS011;58098;51.680;5.134;2023-12-07T03:51:13;135.57;;;24.33;;
70545;SDS011;58098;51.680;5.134;2023-12-07T03:53:41;157.43;;;27.15;;
70545;SDS011;58098;51.680;5.134;2023-12-07T03:56:07;109.18;;;22.83;;
70545;SDS011;58098;51.680;5.134;2023-12-07T03:58:33;160.17;;;24.50;;
70545;SDS011;58098;51.680;5.134;2023-12-07T04:00:58;115.53;;;24.17;;
70545;SDS011;58098;51.680;5.134;2023-12-07T04:03:23;87.57;;;22.87;;
70545;SDS011;58098;51.680;5.134;2023-12-07T04:05:48;112.33;;;23.37;;
70545;SDS011;58098;51.680;5.134;2023-12-07T04:08:14;157.63;;;25.07;;
70545;SDS011;58098;51.680;5.134;2023-12-07T04:10:39;216.20;;;27.60;;
70545;SDS011;58098;51.680;5.134;2023-12-07T04:13:05;139.97;;;24.23;;
70545;SDS011;58098;51.680;5.134;2023-12-07T04:15:31;88.63;;;21.98;;
70545;SDS011;58098;51.680;5.134;2023-12-07T04:17:56;135.40;;;25.20;;
70545;SDS011;58098;51.680;5.134;2023-12-07T04:20:22;168.60;;;28.37;;
70545;SDS011;58098;51.680;5.134;2023-12-07T04:22:47;118.47;;;24.60;;
70545;SDS011;58098;51.680;5.134;2023-12-07T04:25:12;111.90;;;22.80;;
70545;SDS011;58098;51.680;5.134;2023-12-07T04:27:38;113.47;;;22.93;;
70545;SDS011;58098;51.680;5.134;2023-12-07T04:30:03;174.67;;;26.40;;
70545;SDS011;58098;51.680;5.134;2023-12-07T04:32:29;152.70;;;27.00;;
70545;SDS011;58098;51.680;5.134;2023-12-07T04:34:54;181.50;;;28.60;;
70545;SDS011;58098;51.680;5.134;2023-12-07T04:37:20;103.83;;;20.77;;
70545;SDS011;58098;51.680;5.134;2023-12-07T04:39:45;85.53;;;19.90;;
70545;SDS011;58098;51.680;5.134;2023-12-07T04:42:11;97.47;;;20.73;;
70545;SDS011;58098;51.680;5.134;2023-12-07T04:44:36;72.60;;;19.27;;
70545;SDS011;58098;51.680;5.134;2023-12-07T04:47:01;87.40;;;21.07;;
70545;SDS011;58098;51.680;5.134;2023-12-07T04:49:27;102.80;;;21.13;;
70545;SDS011;58098;51.680;5.134;2023-12-07T04:51:52;72.63;;;20.20;;
70545;SDS011;58098;51.680;5.134;2023-12-07T04:54:17;82.77;;;21.10;;
70545;SDS011;58098;51.680;5.134;2023-12-07T04:56:44;97.60;;;19.70;;
70545;SDS011;58098;51.680;5.134;2023-12-07T04:59:09;124.40;;;21.83;;
70545;SDS011;58098;51.680;5.134;2023-12-07T05:01:35;92.33;;;18.07;;
70545;SDS011;58098;51.680;5.134;2023-12-07T05:04:01;106.07;;;18.98;;
70545;SDS011;58098;51.680;5.134;2023-12-07T05:06:28;65.10;;;16.85;;
70545;SDS011;58098;51.680;5.134;2023-12-07T05:08:54;91.15;;;18.40;;
70545;SDS011;58098;51.680;5.134;2023-12-07T05:11:19;108.50;;;17.40;;
70545;SDS011;58098;51.680;5.134;2023-12-07T05:13:45;83.57;;;18.47;;
70545;SDS011;58098;51.680;5.134;2023-12-07T05:16:10;139.37;;;17.40;;
70545;SDS011;58098;51.680;5.134;2023-12-07T05:18:35;98.57;;;14.70;;
70545;SDS011;58098;51.680;5.134;2023-12-07T05:21:01;77.00;;;14.67;;
70545;SDS011;58098;51.680;5.134;2023-12-07T05:23:26;84.00;;;14.87;;
70545;SDS011;58098;51.680;5.134;2023-12-07T05:25:52;56.40;;;13.20;;
70545;SDS011;58098;51.680;5.134;2023-12-07T05:28:18;73.45;;;13.25;;
70545;SDS011;58098;51.680;5.134;2023-12-07T05:30:43;121.87;;;16.60;;
70545;SDS011;58098;51.680;5.134;2023-12-07T05:33:09;53.17;;;13.50;;
70545;SDS011;58098;51.680;5.134;2023-12-07T05:35:34;33.80;;;12.90;;
70545;SDS011;58098;51.680;5.134;2023-12-07T05:37:59;89.27;;;14.07;;
70545;SDS011;58098;51.680;5.134;2023-12-07T05:40:25;56.67;;;12.73;;
70545;SDS011;58098;51.680;5.134;2023-12-07T05:42:51;55.67;;;14.40;;
70545;SDS011;58098;51.680;5.134;2023-12-07T05:45:16;84.87;;;14.27;;
70545;SDS011;58098;51.680;5.134;2023-12-07T05:47:42;41.85;;;12.65;;
70545;SDS011;58098;51.680;5.134;2023-12-07T05:50:07;65.13;;;13.17;;
70545;SDS011;58098;51.680;5.134;2023-12-07T05:52:33;89.37;;;13.50;;
70545;SDS011;58098;51.680;5.134;2023-12-07T05:54:58;60.92;;;12.52;;
70545;SDS011;58098;51.680;5.134;2023-12-07T05:57:24;43.07;;;11.43;;
70545;SDS011;58098;51.680;5.134;2023-12-07T05:59:49;56.50;;;12.50;;
70545;SDS011;58098;51.680;5.134;2023-12-07T06:02:15;39.07;;;11.17;;
70545;SDS011;58098;51.680;5.134;2023-12-07T06:04:40;57.57;;;11.73;;
70545;SDS011;58098;51.680;5.134;2023-12-07T06:07:05;64.80;;;12.27;;
70545;SDS011;58098;51.680;5.134;2023-12-07T06:09:31;36.30;;;11.77;;
70545;SDS011;58098;51.680;5.134;2023-12-07T06:11:56;40.83;;;10.97;;
70545;SDS011;58098;51.680;5.134;2023-12-07T06:14:22;50.72;;;11.27;;
70545;SDS011;58098;51.680;5.134;2023-12-07T06:16:50;28.30;;;10.90;;
70545;SDS011;58098;51.680;5.134;2023-12-07T06:19:15;27.73;;;10.33;;
70545;SDS011;58098;51.680;5.134;2023-12-07T06:21:41;39.10;;;11.18;;
70545;SDS011;58098;51.680;5.134;2023-12-07T06:24:06;68.43;;;12.67;;
70545;SDS011;58098;51.680;5.134;2023-12-07T06:26:32;36.83;;;10.93;;
70545;SDS011;58098;51.680;5.134;2023-12-07T06:28:57;33.97;;;11.27;;
70545;SDS011;58098;51.680;5.134;2023-12-07T06:31:23;43.70;;;10.33;;
70545;SDS011;58098;51.680;5.134;2023-12-07T06:33:48;31.83;;;10.60;;
70545;SDS011;58098;51.680;5.134;2023-12-07T06:36:20;25.90;;;9.45;;
70545;SDS011;58098;51.680;5.134;2023-12-07T06:38:46;30.90;;;11.17;;
70545;SDS011;58098;51.680;5.134;2023-12-07T06:41:12;32.13;;;10.50;;
70545;SDS011;58098;51.680;5.134;2023-12-07T06:43:38;30.87;;;11.17;;
70545;SDS011;58098;51.680;5.134;2023-12-07T06:46:03;39.63;;;11.93;;
70545;SDS011;58098;51.680;5.134;2023-12-07T06:48:28;32.13;;;10.60;;
70545;SDS011;58098;51.680;5.134;2023-12-07T06:50:54;63.20;;;13.17;;
70545;SDS011;58098;51.680;5.134;2023-12-07T06:53:19;43.43;;;11.50;;
70545;SDS011;58098;51.680;5.134;2023-12-07T06:55:45;40.70;;;11.63;;
70545;SDS011;58098;51.680;5.134;2023-12-07T06:58:10;48.60;;;11.10;;
70545;SDS011;58098;51.680;5.134;2023-12-07T07:00:36;63.60;;;12.47;;
70545;SDS011;58098;51.680;5.134;2023-12-07T07:03:01;89.77;;;13.23;;
70545;SDS011;58098;51.680;5.134;2023-12-07T07:05:26;39.73;;;12.00;;
70545;SDS011;58098;51.680;5.134;2023-12-07T07:07:52;38.43;;;10.67;;
70545;SDS011;58098;51.680;5.134;2023-12-07T07:10:17;49.67;;;12.70;;
70545;SDS011;58098;51.680;5.134;2023-12-07T07:12:43;41.47;;;12.27;;
70545;SDS011;58098;51.680;5.134;2023-12-07T07:15:08;47.30;;;12.97;;
70545;SDS011;58098;51.680;5.134;2023-12-07T07:17:34;43.70;;;12.90;;
70545;SDS011;58098;51.680;5.134;2023-12-07T07:19:59;42.50;;;12.63;;
70545;SDS011;58098;51.680;5.134;2023-12-07T07:22:24;54.60;;;13.23;;
70545;SDS011;58098;51.680;5.134;2023-12-07T07:24:50;56.50;;;14.60;;
70545;SDS011;58098;51.680;5.134;2023-12-07T07:27:15;56.67;;;15.27;;
70545;SDS011;58098;51.680;5.134;2023-12-07T07:29:40;58.80;;;13.93;;
70545;SDS011;58098;51.680;5.134;2023-12-07T07:32:06;59.60;;;14.67;;
70545;SDS011;58098;51.680;5.134;2023-12-07T07:34:31;53.92;;;14.98;;
70545;SDS011;58098;51.680;5.134;2023-12-07T07:36:56;59.20;;;15.13;;
70545;SDS011;58098;51.680;5.134;2023-12-07T07:39:22;52.93;;;14.43;;
70545;SDS011;58098;51.680;5.134;2023-12-07T07:41:47;58.97;;;14.87;;
70545;SDS011;58098;51.680;5.134;2023-12-07T07:44:12;52.70;;;13.97;;
70545;SDS011;58098;51.680;5.134;2023-12-07T07:46:40;54.93;;;14.17;;
70545;SDS011;58098;51.680;5.134;2023-12-07T07:49:05;63.42;;;14.98;;
70545;SDS011;58098;51.680;5.134;2023-12-07T07:51:31;48.28;;;13.27;;
70545;SDS011;58098;51.680;5.134;2023-12-07T07:53:57;48.20;;;13.47;;
70545;SDS011;58098;51.680;5.134;2023-12-07T07:56:23;53.38;;;15.45;;
70545;SDS011;58098;51.680;5.134;2023-12-07T07:58:49;65.80;;;15.20;;
70545;SDS011;58098;51.680;5.134;2023-12-07T08:01:14;58.23;;;14.87;;
70545;SDS011;58098;51.680;5.134;2023-12-07T08:03:39;55.43;;;15.70;;
70545;SDS011;58098;51.680;5.134;2023-12-07T08:06:06;55.97;;;15.00;;
70545;SDS011;58098;51.680;5.134;2023-12-07T08:08:31;52.20;;;14.17;;
70545;SDS011;58098;51.680;5.134;2023-12-07T08:10:57;52.67;;;14.23;;
70545;SDS011;58098;51.680;5.134;2023-12-07T08:13:22;59.67;;;14.52;;
70545;SDS011;58098;51.680;5.134;2023-12-07T08:15:48;48.73;;;13.80;;
70545;SDS011;58098;51.680;5.134;2023-12-07T08:18:13;50.20;;;14.10;;
70545;SDS011;58098;51.680;5.134;2023-12-07T08:20:39;47.85;;;13.68;;
70545;SDS011;58098;51.680;5.134;2023-12-07T08:23:04;45.73;;;13.73;;
70545;SDS011;58098;51.680;5.134;2023-12-07T08:25:30;47.53;;;13.67;;
70545;SDS011;58098;51.680;5.134;2023-12-07T08:27:57;63.15;;;15.70;;
70545;SDS011;58098;51.680;5.134;2023-12-07T08:30:22;52.97;;;14.10;;
70545;SDS011;58098;51.680;5.134;2023-12-07T08:32:47;72.70;;;15.20;;
70545;SDS011;58098;51.680;5.134;2023-12-07T08:35:13;53.27;;;14.20;;
70545;SDS011;58098;51.680;5.134;2023-12-07T08:37:38;43.08;;;14.25;;
70545;SDS011;58098;51.680;5.134;2023-12-07T08:40:04;41.17;;;13.37;;
70545;SDS011;58098;51.680;5.134;2023-12-07T08:42:32;43.47;;;13.82;;
70545;SDS011;58098;51.680;5.134;2023-12-07T08:44:57;47.17;;;16.13;;
70545;SDS011;58098;51.680;5.134;2023-12-07T08:47:23;39.35;;;12.82;;
70545;SDS011;58098;51.680;5.134;2023-12-07T08:49:48;53.13;;;15.47;;
70545;SDS011;58098;51.680;5.134;2023-12-07T08:52:14;47.00;;;14.88;;
70545;SDS011;58098;51.680;5.134;2023-12-07T08:54:39;47.30;;;14.30;;
70545;SDS011;58098;51.680;5.134;2023-12-07T08:57:04;40.33;;;12.93;;
70545;SDS011;58098;51.680;5.134;2023-12-07T08:59:30;36.30;;;11.97;;
70545;SDS011;58098;51.680;5.134;2023-12-07T09:01:56;42.65;;;15.07;;
70545;SDS011;58098;51.680;5.134;2023-12-07T09:04:21;37.47;;;12.77;;
70545;SDS011;58098;51.680;5.134;2023-12-07T09:06:46;42.10;;;14.00;;
70545;SDS011;58098;51.680;5.134;2023-12-07T09:09:12;38.97;;;13.17;;
70545;SDS011;58098;51.680;5.134;2023-12-07T09:11:37;46.17;;;14.03;;
70545;SDS011;58098;51.680;5.134;2023-12-07T09:14:02;39.23;;;13.83;;
70545;SDS011;58098;51.680;5.134;2023-12-07T09:16:28;58.87;;;16.77;;
70545;SDS011;58098;51.680;5.134;2023-12-07T09:18:53;39.13;;;14.27;;
70545;SDS011;58098;51.680;5.134;2023-12-07T09:21:18;51.50;;;14.23;;
70545;SDS011;58098;51.680;5.134;2023-12-07T09:23:44;38.57;;;15.07;;
70545;SDS011;58098;51.680;5.134;2023-12-07T09:26:09;43.95;;;15.88;;
70545;SDS011;58098;51.680;5.134;2023-12-07T09:28:35;52.20;;;16.63;;
70545;SDS011;58098;51.680;5.134;2023-12-07T09:31:00;43.73;;;14.13;;
70545;SDS011;58098;51.680;5.134;2023-12-07T09:33:26;47.97;;;15.57;;
70545;SDS011;58098;51.680;5.134;2023-12-07T09:35:51;50.73;;;16.97;;
70545;SDS011;58098;51.680;5.134;2023-12-07T09:38:17;43.40;;;16.33;;
70545;SDS011;58098;51.680;5.134;2023-12-07T09:40:42;46.33;;;15.97;;
70545;SDS011;58098;51.680;5.134;2023-12-07T09:43:08;46.50;;;15.85;;
70545;SDS011;58098;51.680;5.134;2023-12-07T09:45:33;43.90;;;15.67;;
70545;SDS011;58098;51.680;5.134;2023-12-07T09:47:59;47.50;;;16.73;;
70545;SDS011;58098;51.680;5.134;2023-12-07T09:50:26;49.70;;;16.95;;
70545;SDS011;58098;51.680;5.134;2023-12-07T09:52:56;42.00;;;15.45;;
70545;SDS011;58098;51.680;5.134;2023-12-07T09:55:23;41.03;;;15.73;;
70545;SDS011;58098;51.680;5.134;2023-12-07T09:57:49;44.07;;;15.33;;
70545;SDS011;58098;51.680;5.134;2023-12-07T10:00:15;45.90;;;16.55;;
70545;SDS011;58098;51.680;5.134;2023-12-07T10:02:43;46.05;;;16.35;;
70545;SDS011;58098;51.680;5.134;2023-12-07T10:05:10;49.03;;;16.70;;
70545;SDS011;58098;51.680;5.134;2023-12-07T10:07:50;51.40;;;17.00;;
70545;SDS011;58098;51.680;5.134;2023-12-07T10:10:16;46.75;;;16.92;;
70545;SDS011;58098;51.680;5.134;2023-12-07T10:12:46;54.30;;;18.88;;
70545;SDS011;58098;51.680;5.134;2023-12-07T10:15:16;62.30;;;20.52;;
70545;SDS011;58098;51.680;5.134;2023-12-07T10:17:57;55.95;;;19.35;;
70545;SDS011;58098;51.680;5.134;2023-12-07T10:20:26;44.77;;;17.87;;
70545;SDS011;58098;51.680;5.134;2023-12-07T10:25:30;44.65;;;16.50;;
70545;SDS011;58098;51.680;5.134;2023-12-07T10:27:56;45.47;;;16.00;;
70545;SDS011;58098;51.680;5.134;2023-12-07T10:30:22;43.03;;;15.13;;
70545;SDS011;58098;51.680;5.134;2023-12-07T10:32:51;44.53;;;16.48;;
70545;SDS011;58098;51.680;5.134;2023-12-07T10:35:17;42.28;;;15.80;;
70545;SDS011;58098;51.680;5.134;2023-12-07T10:37:43;43.20;;;15.60;;
70545;SDS011;58098;51.680;5.134;2023-12-07T10:40:09;44.87;;;15.80;;
70545;SDS011;58098;51.680;5.134;2023-12-07T10:42:35;44.57;;;16.30;;
70545;SDS011;58098;51.680;5.134;2023-12-07T10:45:03;46.50;;;15.63;;
70545;SDS011;58098;51.680;5.134;2023-12-07T10:47:30;41.80;;;16.48;;
70545;SDS011;58098;51.680;5.134;2023-12-07T10:50:00;46.60;;;16.40;;
70545;SDS011;58098;51.680;5.134;2023-12-07T10:52:25;44.03;;;16.10;;
70545;SDS011;58098;51.680;5.134;2023-12-07T10:57:23;44.78;;;16.85;;
70545;SDS011;58098;51.680;5.134;2023-12-07T10:59:50;41.90;;;16.88;;
70545;SDS011;58098;51.680;5.134;2023-12-07T11:02:17;41.27;;;15.77;;
70545;SDS011;58098;51.680;5.134;2023-12-07T11:04:44;45.38;;;17.38;;
70545;SDS011;58098;51.680;5.134;2023-12-07T11:07:11;45.35;;;17.10;;
70545;SDS011;58098;51.680;5.134;2023-12-07T11:09:44;42.97;;;16.88;;
70545;SDS011;58098;51.680;5.134;2023-12-07T11:12:20;41.97;;;17.15;;
70545;SDS011;58098;51.680;5.134;2023-12-07T11:14:55;48.77;;;17.63;;
70545;SDS011;58098;51.680;5.134;2023-12-07T11:17:20;45.87;;;16.60;;
70545;SDS011;58098;51.680;5.134;2023-12-07T11:19:47;40.90;;;16.43;;
70545;SDS011;58098;51.680;5.134;2023-12-07T11:22:13;46.45;;;17.02;;
70545;SDS011;58098;51.680;5.134;2023-12-07T11:24:51;44.65;;;18.23;;
70545;SDS011;58098;51.680;5.134;2023-12-07T11:27:17;46.60;;;18.38;;
70545;SDS011;58098;51.680;5.134;2023-12-07T11:29:43;49.57;;;17.90;;
70545;SDS011;58098;51.680;5.134;2023-12-07T11:32:11;43.87;;;18.60;;
70545;SDS011;58098;51.680;5.134;2023-12-07T11:34:40;47.80;;;17.67;;
70545;SDS011;58098;51.680;5.134;2023-12-07T11:37:07;44.58;;;17.35;;
70545;SDS011;58098;51.680;5.134;2023-12-07T11:39:40;41.13;;;17.57;;
70545;SDS011;58098;51.680;5.134;2023-12-07T11:42:07;44.08;;;17.00;;
70545;SDS011;58098;51.680;5.134;2023-12-07T11:44:40;43.25;;;16.63;;
70545;SDS011;58098;51.680;5.134;2023-12-07T11:47:07;43.17;;;16.70;;
70545;SDS011;58098;51.680;5.134;2023-12-07T11:49:33;40.90;;;18.48;;
70545;SDS011;58098;51.680;5.134;2023-12-07T11:51:59;45.87;;;17.50;;
70545;SDS011;58098;51.680;5.134;2023-12-07T11:54:27;43.23;;;16.20;;
70545;SDS011;58098;51.680;5.134;2023-12-07T11:56:57;42.78;;;17.50;;
70545;SDS011;58098;51.680;5.134;2023-12-07T11:59:22;51.63;;;18.15;;
70545;SDS011;58098;51.680;5.134;2023-12-07T12:01:50;41.45;;;17.88;;
70545;SDS011;58098;51.680;5.134;2023-12-07T12:04:16;39.00;;;16.50;;
70545;SDS011;58098;51.680;5.134;2023-12-07T12:06:45;44.63;;;17.65;;
70545;SDS011;58098;51.680;5.134;2023-12-07T12:09:14;44.47;;;17.40;;
70545;SDS011;58098;51.680;5.134;2023-12-07T12:11:46;44.03;;;18.02;;
70545;SDS011;58098;51.680;5.134;2023-12-07T12:14:13;42.93;;;17.17;;
70545;SDS011;58098;51.680;5.134;2023-12-07T12:16:40;40.28;;;17.20;;
70545;SDS011;58098;51.680;5.134;2023-12-07T12:19:05;43.73;;;17.23;;
70545;SDS011;58098;51.680;5.134;2023-12-07T12:21:33;40.47;;;16.40;;
70545;SDS011;58098;51.680;5.134;2023-12-07T12:23:59;42.78;;;17.30;;
70545;SDS011;58098;51.680;5.134;2023-12-07T12:26:24;46.20;;;16.73;;
70545;SDS011;58098;51.680;5.134;2023-12-07T12:28:50;40.92;;;17.17;;
70545;SDS011;58098;51.680;5.134;2023-12-07T12:31:17;38.97;;;15.70;;
70545;SDS011;58098;51.680;5.134;2023-12-07T12:33:43;39.27;;;15.50;;
70545;SDS011;58098;51.680;5.134;2023-12-07T12:36:08;36.07;;;15.77;;
70545;SDS011;58098;51.680;5.134;2023-12-07T12:38:35;42.13;;;16.83;;
70545;SDS011;58098;51.680;5.134;2023-12-07T12:41:01;41.03;;;17.85;;
70545;SDS011;58098;51.680;5.134;2023-12-07T12:43:29;39.85;;;17.08;;
70545;SDS011;58098;51.680;5.134;2023-12-07T12:45:56;38.40;;;17.40;;
70545;SDS011;58098;51.680;5.134;2023-12-07T12:48:22;40.10;;;15.85;;
70545;SDS011;58098;51.680;5.134;2023-12-07T12:50:48;38.23;;;16.70;;
70545;SDS011;58098;51.680;5.134;2023-12-07T12:53:13;38.95;;;16.83;;
70545;SDS011;58098;51.680;5.134;2023-12-07T12:55:40;39.63;;;16.53;;
70545;SDS011;58098;51.680;5.134;2023-12-07T12:58:07;39.30;;;16.05;;
70545;SDS011;58098;51.680;5.134;2023-12-07T13:00:34;42.65;;;17.90;;
70545;SDS011;58098;51.680;5.134;2023-12-07T13:03:04;39.83;;;17.40;;
70545;SDS011;58098;51.680;5.134;2023-12-07T13:05:30;37.70;;;17.40;;
70545;SDS011;58098;51.680;5.134;2023-12-07T13:07:57;40.90;;;17.90;;
70545;SDS011;58098;51.680;5.134;2023-12-07T13:10:23;36.20;;;16.60;;
70545;SDS011;58098;51.680;5.134;2023-12-07T13:12:49;39.87;;;17.40;;
70545;SDS011;58098;51.680;5.134;2023-12-07T13:15:14;42.03;;;17.87;;
70545;SDS011;58098;51.680;5.134;2023-12-07T13:17:40;45.47;;;18.65;;
70545;SDS011;58098;51.680;5.134;2023-12-07T13:20:08;39.53;;;18.40;;
70545;SDS011;58098;51.680;5.134;2023-12-07T13:22:35;35.40;;;17.30;;
70545;SDS011;58098;51.680;5.134;2023-12-07T13:25:03;39.40;;;16.88;;
70545;SDS011;58098;51.680;5.134;2023-12-07T13:27:31;41.90;;;18.23;;
70545;SDS011;58098;51.680;5.134;2023-12-07T13:30:01;37.42;;;16.92;;
70545;SDS011;58098;51.680;5.134;2023-12-07T13:32:30;37.72;;;17.30;;
70545;SDS011;58098;51.680;5.134;2023-12-07T13:34:56;39.37;;;17.77;;
70545;SDS011;58098;51.680;5.134;2023-12-07T13:37:21;39.00;;;18.17;;
70545;SDS011;58098;51.680;5.134;2023-12-07T13:39:46;43.27;;;18.57;;
70545;SDS011;58098;51.680;5.134;2023-12-07T13:42:18;38.97;;;18.07;;
70545;SDS011;58098;51.680;5.134;2023-12-07T13:44:43;38.35;;;18.52;;
70545;SDS011;58098;51.680;5.134;2023-12-07T13:47:08;38.40;;;17.43;;
70545;SDS011;58098;51.680;5.134;2023-12-07T13:49:34;38.10;;;17.95;;
70545;SDS011;58098;51.680;5.134;2023-12-07T13:52:01;41.80;;;18.17;;
70545;SDS011;58098;51.680;5.134;2023-12-07T13:54:26;37.60;;;16.43;;
70545;SDS011;58098;51.680;5.134;2023-12-07T13:56:51;41.40;;;17.53;;
70545;SDS011;58098;51.680;5.134;2023-12-07T13:59:18;42.77;;;18.20;;
70545;SDS011;58098;51.680;5.134;2023-12-07T14:01:43;36.07;;;18.07;;
70545;SDS011;58098;51.680;5.134;2023-12-07T14:04:09;40.08;;;18.45;;
70545;SDS011;58098;51.680;5.134;2023-12-07T14:06:34;40.00;;;18.07;;
70545;SDS011;58098;51.680;5.134;2023-12-07T14:09:00;40.70;;;18.33;;
70545;SDS011;58098;51.680;5.134;2023-12-07T14:11:26;42.58;;;19.33;;
70545;SDS011;58098;51.680;5.134;2023-12-07T14:13:51;46.67;;;18.97;;
70545;SDS011;58098;51.680;5.134;2023-12-07T14:16:19;39.80;;;17.80;;
70545;SDS011;58098;51.680;5.134;2023-12-07T14:18:46;42.03;;;18.98;;
70545;SDS011;58098;51.680;5.134;2023-12-07T14:21:11;40.20;;;19.35;;
70545;SDS011;58098;51.680;5.134;2023-12-07T14:23:39;42.00;;;18.80;;